createdAt,value
2023-04-24T00:02:33.624Z,1.63
2023-04-24T00:06:38.046Z,1.60
2023-04-24T00:10:43.090Z,1.30
2023-04-24T00:14:45.937Z,1.63
2023-04-24T00:18:49.747Z,1.47
2023-04-24T00:22:52.843Z,1.60
2023-04-24T00:26:57.019Z,1.40
2023-04-24T00:30:59.738Z,1.60
2023-04-24T00:35:02.419Z,1.40
2023-04-24T00:39:05.320Z,1.60
2023-04-24T00:43:10.553Z,1.27
2023-04-24T00:47:13.969Z,1.63
2023-04-24T00:51:16.788Z,1.60
2023-04-24T00:55:19.906Z,1.40
2023-04-24T00:59:26.009Z,1.40
2023-04-24T01:03:31.586Z,1.37
2023-04-24T01:07:34.580Z,1.30
2023-04-24T01:11:37.419Z,1.40
2023-04-24T01:15:41.711Z,1.40
2023-04-24T01:19:46.124Z,1.40
2023-04-24T01:23:50.567Z,1.40
2023-04-24T01:27:53.649Z,1.10
2023-04-24T01:31:59.332Z,1.43
2023-04-24T01:36:02.095Z,1.30
2023-04-24T01:40:07.597Z,1.60
2023-04-24T01:44:10.402Z,1.10
2023-04-24T01:48:13.789Z,1.20
2023-04-24T01:52:17.348Z,1.10
2023-04-24T01:56:22.098Z,1.20
2023-04-24T02:00:25.360Z,1.10
2023-04-24T02:04:28.089Z,1.00
2023-04-24T02:08:30.968Z,0.90
2023-04-24T02:12:35.513Z,0.90
2023-04-24T02:16:39.963Z,1.00
2023-04-24T02:20:42.741Z,0.83
2023-04-24T02:24:45.480Z,0.90
2023-04-24T02:28:49.740Z,0.80
2023-04-24T02:32:52.725Z,0.80
2023-04-24T02:36:55.871Z,0.70
2023-04-24T02:40:58.501Z,1.00
2023-04-24T02:45:02.761Z,0.80
2023-04-24T02:49:05.452Z,0.70
2023-04-24T02:53:08.149Z,1.00
2023-04-24T02:57:10.997Z,0.63
2023-04-24T03:01:15.071Z,0.60
2023-04-24T03:05:17.766Z,0.80
2023-04-24T03:09:20.494Z,0.70
2023-04-24T03:13:23.398Z,0.70
2023-04-24T03:17:27.769Z,0.90
2023-04-24T03:21:30.812Z,1.03
2023-04-24T03:25:33.745Z,0.63
2023-04-24T03:29:36.988Z,1.50
2023-04-24T03:33:41.507Z,1.23
2023-04-24T03:37:44.338Z,1.00
2023-04-24T03:41:47.025Z,0.90
2023-04-24T03:45:49.715Z,0.90
2023-04-24T03:49:55.416Z,0.90
2023-04-24T03:53:58.141Z,0.77
2023-04-24T03:58:00.843Z,0.93
2023-04-24T04:02:03.631Z,1.03
2023-04-24T04:06:08.153Z,1.70
2023-04-24T04:10:12.384Z,1.10
2023-04-24T04:14:15.101Z,1.00
2023-04-24T04:18:18.200Z,0.90
2023-04-24T04:22:22.514Z,1.00
2023-04-24T04:26:26.488Z,0.90
2023-04-24T04:30:30.409Z,1.03
2023-04-24T04:34:34.150Z,0.90
2023-04-24T04:38:38.467Z,0.93
2023-04-24T04:42:47.035Z,1.00
2023-04-24T04:46:49.982Z,0.77
2023-04-24T04:50:52.691Z,2.00
2023-04-24T04:54:57.219Z,1.10
2023-04-24T04:59:00.387Z,1.30
2023-04-24T05:03:16.841Z,2.00
2023-04-24T05:07:23.216Z,2.13
2023-04-24T05:11:27.265Z,1.30
2023-04-24T05:15:30.037Z,1.37
2023-04-24T05:19:37.046Z,1.20
2023-04-24T05:23:39.781Z,1.20
2023-04-24T05:27:45.534Z,1.00
2023-04-24T05:31:48.370Z,1.10
2023-04-24T05:35:51.125Z,0.90
2023-04-24T05:39:53.858Z,0.90
2023-04-24T05:43:57.939Z,1.00
2023-04-24T05:48:00.677Z,1.10
2023-04-24T05:52:06.969Z,0.90
2023-04-24T05:56:11.224Z,0.90
2023-04-24T06:00:16.890Z,1.00
2023-04-24T06:04:20.116Z,1.00
2023-04-24T06:08:24.894Z,0.90
2023-04-24T06:12:28.374Z,0.93
2023-04-24T06:16:33.395Z,0.90
2023-04-24T06:20:36.234Z,1.13
2023-04-24T06:24:39.488Z,1.00
2023-04-24T06:28:42.170Z,0.80
2023-04-24T06:32:46.384Z,0.83
2023-04-24T06:36:49.486Z,0.93
2023-04-24T06:40:53.811Z,0.70
2023-04-24T06:44:56.504Z,0.70
2023-04-24T06:49:00.996Z,0.70
2023-04-24T06:53:03.950Z,0.60
2023-04-24T06:57:06.936Z,0.53
2023-04-24T07:01:12.168Z,0.60
2023-04-24T07:05:16.820Z,0.50
2023-04-24T07:09:20.166Z,0.50
2023-04-24T07:13:23.546Z,0.50
2023-04-24T07:17:26.546Z,0.50
2023-04-24T07:21:32.078Z,0.70
2023-04-24T07:25:35.051Z,1.00
2023-04-24T07:29:38.025Z,1.00
2023-04-24T07:33:40.822Z,1.03
2023-04-24T07:37:46.830Z,1.10
2023-04-24T07:41:49.666Z,1.10
2023-04-24T07:45:52.955Z,1.30
2023-04-24T07:49:55.998Z,1.10
2023-04-24T07:54:00.094Z,1.13
2023-04-24T07:58:03.058Z,1.03
2023-04-24T08:02:07.155Z,1.60
2023-04-24T08:06:10.126Z,1.40
2023-04-24T08:10:14.684Z,1.60
2023-04-24T08:14:17.548Z,1.40
2023-04-24T08:18:20.616Z,1.13
2023-04-24T08:22:23.372Z,1.57
2023-04-24T08:26:27.507Z,1.47
2023-04-24T08:30:30.968Z,1.50
2023-04-24T08:34:36.482Z,1.87
2023-04-24T08:38:40.211Z,1.73
2023-04-24T08:42:46.627Z,2.10
2023-04-24T08:46:50.581Z,1.80
2023-04-24T08:50:53.391Z,1.87
2023-04-24T08:54:57.433Z,1.70
2023-04-24T08:59:02.954Z,1.43
2023-04-24T09:03:06.939Z,1.30
2023-04-24T09:07:10.825Z,1.60
2023-04-24T09:11:16.704Z,1.70
2023-04-24T09:15:21.391Z,1.60
2023-04-24T09:19:24.236Z,1.40
2023-04-24T09:23:29.087Z,1.60
2023-04-24T09:27:32.187Z,1.47
2023-04-24T09:31:36.311Z,1.40
2023-04-24T09:35:42.504Z,1.40
2023-04-24T09:39:45.713Z,1.50
2023-04-24T09:43:48.463Z,1.30
2023-04-24T09:47:56.085Z,1.30
2023-04-24T09:52:05.145Z,1.05
2023-04-24T09:56:10.358Z,1.03
2023-04-24T10:00:14.699Z,1.07
2023-04-24T10:04:20.428Z,1.10
2023-04-24T10:08:24.303Z,0.90
2023-04-24T10:12:29.974Z,1.27
2023-04-24T10:16:33.761Z,1.10
2023-04-24T10:20:39.124Z,0.80
2023-04-24T10:24:45.607Z,0.70
2023-04-24T10:28:49.088Z,0.50
2023-04-24T10:32:52.308Z,0.60
2023-04-24T10:37:00.920Z,0.60
2023-04-24T10:41:14.998Z,0.60
2023-04-24T10:45:22.470Z,0.60
2023-04-24T10:49:30.847Z,0.70
2023-04-24T10:53:37.204Z,0.80
2023-04-24T10:57:40.072Z,0.93
2023-04-24T11:01:55.209Z,0.83
2023-04-24T11:06:00.207Z,0.93
2023-04-24T11:10:06.085Z,1.10
2023-04-24T11:14:11.528Z,1.00
2023-04-24T11:18:17.669Z,1.13
2023-04-24T11:22:24.186Z,1.30
2023-04-24T11:26:33.379Z,1.37
2023-04-24T11:30:36.357Z,1.40
2023-04-24T11:34:40.673Z,1.20
2023-04-24T11:38:44.238Z,1.00
2023-04-24T11:42:50.835Z,1.40
2023-04-24T11:46:53.519Z,1.47
2023-04-24T11:50:56.299Z,1.30
2023-04-24T11:54:59.429Z,1.33
2023-04-24T11:59:06.641Z,1.33
2023-04-24T12:03:10.670Z,1.30
2023-04-24T12:07:13.559Z,1.50
2023-04-24T12:11:18.822Z,1.53
2023-04-24T12:15:23.686Z,1.57
2023-04-24T12:19:26.755Z,1.57
2023-04-24T12:23:39.281Z,1.53
2023-04-24T12:27:42.121Z,1.47
2023-04-24T12:31:46.318Z,1.47
2023-04-24T12:35:50.473Z,1.67
2023-04-24T12:40:08.144Z,1.27
2023-04-24T12:44:16.593Z,1.63
2023-04-24T12:48:21.281Z,1.50
2023-04-24T12:52:24.609Z,1.40
2023-04-24T12:56:27.325Z,1.40
2023-04-24T13:00:30.288Z,1.47
2023-04-24T13:04:34.771Z,1.40
2023-04-24T13:08:37.851Z,1.30
2023-04-24T13:12:41.238Z,1.50
2023-04-24T13:16:44.129Z,1.30
2023-04-24T13:20:48.558Z,1.40
2023-04-24T13:24:51.512Z,1.80
2023-04-24T13:28:54.311Z,1.40
2023-04-24T13:32:57.149Z,1.30
2023-04-24T13:37:01.346Z,1.70
2023-04-24T13:41:04.271Z,1.70
2023-04-24T13:45:21.332Z,1.20
2023-04-24T13:49:28.086Z,1.30
2023-04-24T13:53:33.236Z,1.17
2023-04-24T13:57:36.327Z,1.70
2023-04-24T14:01:39.052Z,1.13
2023-04-24T14:05:42.607Z,1.50
2023-04-24T14:09:46.762Z,2.43
2023-04-24T14:13:50.678Z,1.77
2023-04-24T14:17:53.570Z,1.80
2023-04-24T14:21:57.722Z,1.70
2023-04-24T14:26:01.900Z,1.37
2023-04-24T14:30:05.395Z,1.60
2023-04-24T14:34:08.381Z,1.40
2023-04-24T14:38:11.360Z,3.30
2023-04-24T14:42:15.840Z,1.90
2023-04-24T14:46:18.637Z,1.77
2023-04-24T14:50:24.330Z,1.60
2023-04-24T14:54:27.644Z,1.90
2023-04-24T14:58:31.798Z,1.67
2023-04-24T15:02:35.465Z,1.70
2023-04-24T15:06:39.029Z,1.90
2023-04-24T15:10:42.131Z,1.83
2023-04-24T15:14:46.544Z,1.60
2023-04-24T15:18:49.589Z,1.70
2023-04-24T15:22:52.345Z,2.13
2023-04-24T15:26:57.466Z,1.97
2023-04-24T15:31:03.276Z,1.80
2023-04-24T15:35:08.974Z,1.97
2023-04-24T15:39:15.389Z,2.10
2023-04-24T15:43:18.181Z,1.80
2023-04-24T15:47:22.718Z,2.20
2023-04-24T15:51:25.491Z,2.20
2023-04-24T15:55:29.217Z,2.50
2023-04-24T15:59:32.333Z,2.23
2023-04-24T16:03:36.801Z,3.20
2023-04-24T16:07:39.828Z,2.07
2023-04-24T16:11:42.650Z,2.70
2023-04-24T16:15:45.510Z,4.30
2023-04-24T16:19:49.958Z,2.67
2023-04-24T16:23:52.612Z,2.40
2023-04-24T16:27:57.059Z,2.20
2023-04-24T16:32:00.043Z,4.40
2023-04-24T16:36:07.704Z,3.93
2023-04-24T16:40:12.332Z,5.83
2023-04-24T16:44:15.447Z,2.60
2023-04-24T16:48:18.181Z,3.07
2023-04-24T16:52:22.220Z,3.60
2023-04-24T16:56:24.992Z,2.97
2023-04-24T17:00:27.746Z,3.90
2023-04-24T17:04:32.288Z,2.73
2023-04-24T17:08:40.339Z,5.27
2023-04-24T17:12:43.137Z,2.80
2023-04-24T17:16:46.628Z,3.00
2023-04-24T17:20:51.278Z,3.60
2023-04-24T17:24:55.667Z,3.33
2023-04-24T17:28:58.472Z,3.00
2023-04-24T17:33:01.681Z,2.50
2023-04-24T17:37:05.177Z,3.83
2023-04-24T17:41:09.329Z,3.57
2023-04-24T17:45:14.824Z,2.63
2023-04-24T17:49:19.567Z,2.17
2023-04-24T17:53:22.894Z,2.43
2023-04-24T17:57:27.453Z,2.30
2023-04-24T18:01:30.566Z,2.00
2023-04-24T18:05:34.354Z,2.80
2023-04-24T18:09:37.067Z,2.40
2023-04-24T18:13:42.159Z,2.13
2023-04-24T18:17:45.308Z,2.37
2023-04-24T18:21:48.080Z,2.47
2023-04-24T18:25:53.285Z,2.50
2023-04-24T18:29:57.834Z,2.17
2023-04-24T18:34:00.630Z,2.20
2023-04-24T18:38:03.390Z,2.20
2023-04-24T18:42:06.264Z,2.30
2023-04-24T18:46:10.552Z,2.20
2023-04-24T18:50:14.572Z,3.87
2023-04-24T18:54:21.041Z,2.53
2023-04-24T18:58:23.692Z,3.23
2023-04-24T19:02:28.591Z,2.60
2023-04-24T19:06:33.398Z,2.50
2023-04-24T19:10:36.947Z,2.70
2023-04-24T19:14:39.917Z,2.93
2023-04-24T19:18:43.966Z,2.70
2023-04-24T19:22:47.126Z,2.70
2023-04-24T19:26:49.846Z,2.40
2023-04-24T19:30:52.822Z,2.37
2023-04-24T19:34:57.071Z,2.60
2023-04-24T19:38:59.869Z,2.57
2023-04-24T19:43:02.594Z,2.73
2023-04-24T19:47:05.504Z,2.53
2023-04-24T19:51:09.595Z,3.10
2023-04-24T19:55:12.676Z,3.20
2023-04-24T19:59:15.740Z,2.90
2023-04-24T20:03:32.215Z,2.90
2023-04-24T20:07:46.294Z,2.80
2023-04-24T20:11:51.265Z,3.00
2023-04-24T20:15:53.973Z,2.93
2023-04-24T20:19:56.853Z,2.77
2023-04-24T20:24:01.303Z,2.70
2023-04-24T20:28:04.662Z,2.83
2023-04-24T20:32:07.585Z,2.20
2023-04-24T20:36:10.658Z,2.70
2023-04-24T20:40:15.117Z,2.83
2023-04-24T20:44:17.952Z,2.60
2023-04-24T20:48:20.733Z,2.60
2023-04-24T20:52:23.976Z,2.60
2023-04-24T20:56:28.204Z,2.70
2023-04-24T21:00:31.032Z,2.40
2023-04-24T21:04:37.426Z,2.20
2023-04-24T21:08:40.612Z,2.33
2023-04-24T21:12:44.930Z,2.13
2023-04-24T21:16:47.802Z,2.20
2023-04-24T21:20:51.785Z,2.00
2023-04-24T21:24:54.537Z,2.17
2023-04-24T21:28:58.757Z,2.23
2023-04-24T21:33:01.843Z,2.20
2023-04-24T21:37:04.751Z,2.23
2023-04-24T21:41:07.621Z,2.43
2023-04-24T21:45:13.348Z,1.80
2023-04-24T21:49:16.437Z,2.10
2023-04-24T21:53:19.420Z,2.20
2023-04-24T21:57:22.530Z,2.40
2023-04-24T22:01:26.540Z,2.07
2023-04-24T22:05:32.707Z,1.97
2023-04-24T22:09:35.380Z,2.00
2023-04-24T22:13:38.355Z,2.40
2023-04-24T22:17:43.532Z,2.37
2023-04-24T22:21:46.423Z,1.90
2023-04-24T22:25:49.114Z,2.30
2023-04-24T22:29:52.154Z,2.23
2023-04-24T22:33:56.914Z,2.70
2023-04-24T22:37:59.864Z,2.40
2023-04-24T22:42:03.802Z,2.20
2023-04-24T22:46:06.554Z,2.03
2023-04-24T22:50:11.798Z,2.27
2023-04-24T22:54:14.717Z,2.50
2023-04-24T22:58:17.441Z,2.10
2023-04-24T23:02:20.202Z,2.63
2023-04-24T23:06:24.626Z,2.80
2023-04-24T23:10:27.665Z,2.90
2023-04-24T23:14:30.352Z,2.60
2023-04-24T23:18:33.202Z,2.67
2023-04-24T23:22:37.527Z,2.73
2023-04-24T23:26:40.214Z,2.97
2023-04-24T23:30:43.157Z,3.33
2023-04-24T23:34:46.077Z,3.20
2023-04-24T23:38:50.999Z,2.90
2023-04-24T23:43:05.744Z,3.03
2023-04-24T23:47:09.256Z,3.00
2023-04-24T23:51:12.628Z,3.20
2023-04-24T23:55:16.931Z,2.80
2023-04-24T23:59:20.720Z,2.53
